Hovedside
METAR-TAF:

METAR-TAF

Lufthavner :

Brønnøysund lufthavn. Brønnøy

Brønnøysund, Norge

breddegrad: 65-28N, lengdegrad: 012-13E, høyde over havet: 0 m

Gjeldene værobservasjon

Denne rapporten ble laget for 35 minutter siden, klokken 19:20 UTC
Vind 2 kt fra skiftende retning
Temperatur 13°C
Luftfuktighet 100%
Trykk 1002 hPa
Sikt 10 km eller mer
Få skyer i en høyde av 500 ft
Brutte skyer i en høyde av 7500 ft
lett regn

METAR: ENBN 161920Z VRB02KT 9999 -RA FEW005 BKN075 13/13 Q1002

Tid: 21:55 (19:55 UTC)

Varsel

Denne rapporten ble laget for 5 timer og 55 minutter siden, klokken 14:00 UTC
Varsel gyldig fra 16. klokken 15 UTC til 16. klokken 19 UTC
Vind 8 kt fra skiftende retning
Sikt 10 km eller mer
Få skyer i en høyde av 500 ft
Brutte skyer i en høyde av 3000 ft
Midlertidig
fra 16. klokken 15 UTC til 16. klokken 19 UTC
Brutte skyer i en høyde av 1200 ft
regn

TAF: ENBN 161400Z 1615/1619 VRB08KT 9999 FEW005 BKN030 TEMPO 1615/1619 RA BKN012

Værobservasjoner og værvarsel for over 4000 flyplasser (METAR- og TAF-rapporter).

Tilgjengelige stasjoner er representert av de røde og gule prikkene på kartet.

Hold musepekeren over prikken for å se navnet på stasjonen.

Klikk så for å se værobservasjoner og -varsler.

For å forandre kartet kan du klikke på den grønne knappen med svart kryss for å zoome inn, på den grønne knappen med strek for å zoome ut, eller på de grønne pilene for å se tilstøtende kart.


METAR-TAF: